createdAt,value
2018-02-15T00:00:59.210Z,97657
2018-02-15T00:03:25.882Z,97655
2018-02-15T00:05:52.631Z,97649
2018-02-15T00:08:20.103Z,97645
2018-02-15T00:10:47.527Z,97647
2018-02-15T00:13:14.202Z,97644
2018-02-15T00:15:41.643Z,97642
2018-02-15T00:18:09.098Z,97640
2018-02-15T00:20:35.808Z,97638
2018-02-15T00:23:02.510Z,97645
2018-02-15T00:25:29.904Z,97639
2018-02-15T00:27:56.794Z,97645
2018-02-15T00:30:24.205Z,97643
2018-02-15T00:32:50.931Z,97642
2018-02-15T00:35:18.329Z,97645
2018-02-15T00:37:45.035Z,97644
2018-02-15T00:40:12.454Z,97649
2018-02-15T00:42:39.175Z,97651
2018-02-15T00:45:05.908Z,97663
2018-02-15T00:47:32.559Z,97663
2018-02-15T00:49:59.278Z,97666
2018-02-15T00:52:25.956Z,97669
2018-02-15T00:54:52.687Z,97668
2018-02-15T00:57:19.384Z,97669
2018-02-15T00:59:46.798Z,97671
2018-02-15T01:02:13.500Z,97670
2018-02-15T01:04:40.996Z,97675
2018-02-15T01:07:07.676Z,97673
2018-02-15T01:09:41.245Z,97664
2018-02-15T01:12:07.939Z,97666
2018-02-15T01:14:35.373Z,97663
2018-02-15T01:17:02.084Z,97664
2018-02-15T01:19:28.780Z,97668
2018-02-15T01:21:56.236Z,97666
2018-02-15T01:24:22.922Z,97667
2018-02-15T01:26:49.600Z,97667
2018-02-15T01:29:16.296Z,97671
2018-02-15T01:31:42.986Z,97663
2018-02-15T01:34:09.718Z,97664
2018-02-15T01:36:36.414Z,97672
2018-02-15T01:39:03.901Z,97678
2018-02-15T01:41:30.582Z,97678
2018-02-15T01:43:57.246Z,97686
2018-02-15T01:46:23.918Z,97686
2018-02-15T01:48:50.603Z,97686
2018-02-15T01:51:17.257Z,97680
2018-02-15T01:53:43.995Z,97668
2018-02-15T01:56:10.643Z,97665
2018-02-15T01:58:37.401Z,97667
2018-02-15T02:01:04.054Z,97670
2018-02-15T02:03:31.500Z,97673
2018-02-15T02:05:58.169Z,97663
2018-02-15T02:08:25.578Z,97656
2018-02-15T02:10:52.253Z,97658
2018-02-15T02:13:19.668Z,97650
2018-02-15T02:15:46.377Z,97656
2018-02-15T02:18:13.839Z,97657
2018-02-15T02:20:40.511Z,97662
2018-02-15T02:23:07.186Z,97662
2018-02-15T02:25:33.869Z,97662
2018-02-15T02:28:00.565Z,97671
2018-02-15T02:30:27.259Z,97673
2018-02-15T02:32:53.942Z,97669
2018-02-15T02:35:20.634Z,97677
2018-02-15T02:37:48.071Z,97679
2018-02-15T02:40:14.745Z,97679
2018-02-15T02:42:41.446Z,97669
2018-02-15T02:45:08.105Z,97663
2018-02-15T02:47:35.779Z,97652
2018-02-15T02:50:03.289Z,97658
2018-02-15T02:52:36.940Z,97667
2018-02-15T02:55:04.457Z,97669
2018-02-15T02:57:31.107Z,97669
2018-02-15T02:59:57.790Z,97676
2018-02-15T03:02:25.202Z,97671
2018-02-15T03:04:51.874Z,97679
2018-02-15T03:07:18.668Z,97674
2018-02-15T03:09:45.363Z,97681
2018-02-15T03:12:12.077Z,97675
2018-02-15T03:14:38.775Z,97675
2018-02-15T03:17:06.183Z,97680
2018-02-15T03:19:32.862Z,97680
2018-02-15T03:21:59.527Z,97683
2018-02-15T03:24:33.825Z,97688
2018-02-15T03:27:00.516Z,97684
2018-02-15T03:29:27.204Z,97689
2018-02-15T03:31:53.876Z,97689
2018-02-15T03:34:21.276Z,97686
2018-02-15T03:36:47.940Z,97698
2018-02-15T03:39:14.641Z,97697
2018-02-15T03:41:41.314Z,97699
2018-02-15T03:44:07.972Z,97693
2018-02-15T03:46:34.619Z,97698
2018-02-15T03:49:01.322Z,97702
2018-02-15T03:51:27.984Z,97706
2018-02-15T03:53:54.649Z,97705
2018-02-15T03:56:21.334Z,97705
2018-02-15T03:58:48.059Z,97709
2018-02-15T04:01:15.494Z,97715
2018-02-15T04:03:42.903Z,97716
2018-02-15T04:06:09.591Z,97717
2018-02-15T04:08:36.264Z,97722
2018-02-15T04:11:03.668Z,97720
2018-02-15T04:13:30.373Z,97723
2018-02-15T04:15:57.786Z,97734
2018-02-15T04:18:24.449Z,97737
2018-02-15T04:20:52.668Z,97738
2018-02-15T04:23:19.361Z,97744
2018-02-15T04:25:46.051Z,97738
2018-02-15T04:28:12.738Z,97740
2018-02-15T04:30:39.418Z,97748
2018-02-15T04:33:06.919Z,97751
2018-02-15T04:35:33.623Z,97756
2018-02-15T04:38:01.036Z,97754
2018-02-15T04:40:27.739Z,97758
2018-02-15T04:42:54.519Z,97756
2018-02-15T04:45:21.212Z,97757
2018-02-15T04:47:48.627Z,97769
2018-02-15T04:50:15.296Z,97772
2018-02-15T04:52:41.973Z,97774
2018-02-15T04:55:09.397Z,97773
2018-02-15T04:57:36.087Z,97767
2018-02-15T05:00:02.878Z,97769
2018-02-15T05:02:29.542Z,97764
2018-02-15T05:04:56.215Z,97761
2018-02-15T05:07:22.899Z,97757
2018-02-15T05:09:49.580Z,97755
2018-02-15T05:12:16.400Z,97754
2018-02-15T05:14:43.104Z,97754
2018-02-15T05:17:09.830Z,97755
2018-02-15T05:19:36.547Z,97756
2018-02-15T05:22:04.003Z,97758
2018-02-15T05:24:32.494Z,97764
2018-02-15T05:26:59.878Z,97766
2018-02-15T05:29:26.581Z,97766
2018-02-15T05:31:53.254Z,97763
2018-02-15T05:34:20.694Z,97753
2018-02-15T05:36:47.371Z,97756
2018-02-15T05:39:14.063Z,97757
2018-02-15T05:41:40.729Z,97764
2018-02-15T05:44:07.435Z,97774
2018-02-15T05:46:34.182Z,97783
2018-02-15T05:49:00.837Z,97773
2018-02-15T05:51:27.528Z,97787
2018-02-15T05:53:54.439Z,97794
2018-02-15T05:56:21.209Z,97799
2018-02-15T05:58:48.649Z,97805
2018-02-15T06:01:15.345Z,97809
2018-02-15T06:03:42.040Z,97811
2018-02-15T06:06:08.724Z,97814
2018-02-15T06:08:35.409Z,97828
2018-02-15T06:11:02.842Z,97836
2018-02-15T06:13:29.504Z,97837
2018-02-15T06:15:56.232Z,97838
2018-02-15T06:18:22.923Z,97844
2018-02-15T06:20:50.351Z,97848
2018-02-15T06:23:17.017Z,97857
2018-02-15T06:25:43.738Z,97867
2018-02-15T06:28:10.411Z,97868
2018-02-15T06:30:37.899Z,97880
2018-02-15T06:33:04.569Z,97879
2018-02-15T06:35:31.820Z,97883
2018-02-15T06:37:58.491Z,97890
2018-02-15T06:40:25.232Z,97886
2018-02-15T06:42:51.969Z,97892
2018-02-15T06:45:18.697Z,97896
2018-02-15T06:47:45.358Z,97896
2018-02-15T06:50:13.028Z,97906
2018-02-15T06:52:39.735Z,97908
2018-02-15T06:55:06.427Z,97914
2018-02-15T06:57:33.184Z,97928
2018-02-15T07:00:00.658Z,97939
2018-02-15T07:02:27.432Z,97939
2018-02-15T07:05:09.076Z,97925
2018-02-15T07:07:35.855Z,97930
2018-02-15T07:10:02.578Z,97938
2018-02-15T07:12:30.036Z,97932
2018-02-15T07:14:59.557Z,97942
2018-02-15T07:17:26.269Z,97933
2018-02-15T07:19:53.795Z,97937
2018-02-15T07:22:20.523Z,97943
2018-02-15T07:24:47.265Z,97945
2018-02-15T07:27:14.039Z,97949
2018-02-15T07:29:40.724Z,97951
2018-02-15T07:32:09.055Z,97963
2018-02-15T07:34:37.766Z,97954
2018-02-15T07:37:06.136Z,97960
2018-02-15T07:39:35.466Z,97961
2018-02-15T07:42:03.805Z,97963
2018-02-15T07:44:32.170Z,97960
2018-02-15T07:47:00.574Z,97960
2018-02-15T07:49:28.949Z,97957
2018-02-15T07:51:57.311Z,97959
2018-02-15T07:54:25.690Z,97959
2018-02-15T07:56:54.118Z,97964
2018-02-15T07:59:22.481Z,97959
2018-02-15T08:01:50.834Z,97955
2018-02-15T08:04:19.302Z,97964
2018-02-15T08:06:47.660Z,97958
2018-02-15T08:09:16.011Z,97951
2018-02-15T08:11:44.378Z,97960
2018-02-15T08:14:12.748Z,97961
2018-02-15T08:16:41.061Z,97964
2018-02-15T08:19:09.384Z,97966
2018-02-15T08:21:37.753Z,97959
2018-02-15T08:24:06.117Z,97965
2018-02-15T08:26:34.485Z,97970
2018-02-15T08:29:02.808Z,97975
2018-02-15T08:31:31.138Z,97975
2018-02-15T08:33:59.462Z,97978
2018-02-15T08:36:27.788Z,97979
2018-02-15T08:38:56.146Z,97983
2018-02-15T08:41:24.460Z,97995
2018-02-15T08:43:52.762Z,97995
2018-02-15T08:46:21.108Z,97998
2018-02-15T08:48:49.453Z,98006
2018-02-15T08:51:17.779Z,98012
2018-02-15T08:53:46.146Z,98019
2018-02-15T08:56:14.469Z,98011
2018-02-15T08:58:41.198Z,98020
2018-02-15T09:01:07.919Z,98016
2018-02-15T09:03:36.254Z,98019
2018-02-15T09:06:04.658Z,98021
2018-02-15T09:08:33.058Z,98025
2018-02-15T09:11:01.430Z,98029
2018-02-15T09:13:29.780Z,98030
2018-02-15T09:15:58.122Z,98025
2018-02-15T09:18:26.557Z,98034
2018-02-15T09:20:53.237Z,98034
2018-02-15T09:23:20.702Z,98037
2018-02-15T09:25:48.130Z,98036
2018-02-15T09:28:14.805Z,98029
2018-02-15T09:30:43.301Z,98034
2018-02-15T09:33:11.628Z,98031
2018-02-15T09:35:42.026Z,98030
2018-02-15T09:38:10.368Z,98034
2018-02-15T09:40:38.685Z,98031
2018-02-15T09:43:07.033Z,98030
2018-02-15T09:45:35.361Z,98034
2018-02-15T09:48:03.701Z,98036
2018-02-15T09:50:32.064Z,98028
2018-02-15T09:53:00.418Z,98030
2018-02-15T09:55:28.752Z,98028
2018-02-15T09:57:57.095Z,98023
2018-02-15T10:00:25.427Z,98024
2018-02-15T10:02:55.408Z,98012
2018-02-15T10:05:23.726Z,98011
2018-02-15T10:07:52.069Z,98013
2018-02-15T10:10:21.467Z,98002
2018-02-15T10:12:48.179Z,98003
2018-02-15T10:15:14.908Z,97999
2018-02-15T10:17:43.309Z,97999
2018-02-15T10:20:10.025Z,97994
2018-02-15T10:22:38.389Z,97996
2018-02-15T10:25:06.753Z,98000
2018-02-15T10:27:35.128Z,97994
2018-02-15T10:30:03.504Z,97998
2018-02-15T10:32:31.831Z,97993
2018-02-15T10:35:00.187Z,97988
2018-02-15T10:37:28.546Z,97985
2018-02-15T10:39:56.931Z,97993
2018-02-15T10:42:25.253Z,98000
2018-02-15T10:44:53.576Z,97991
2018-02-15T10:47:22.025Z,97998
2018-02-15T10:49:50.398Z,97997
2018-02-15T10:52:18.895Z,97989
2018-02-15T10:54:47.262Z,97986
2018-02-15T10:57:16.402Z,97984
2018-02-15T10:59:45.104Z,97983
2018-02-15T11:02:19.603Z,97980
2018-02-15T11:04:53.996Z,97969
2018-02-15T11:07:22.378Z,97978
2018-02-15T11:09:50.712Z,97969
2018-02-15T11:12:19.056Z,97967
2018-02-15T11:14:48.561Z,97968
2018-02-15T11:17:16.907Z,97961
2018-02-15T11:19:45.274Z,97963
2018-02-15T11:22:14.550Z,97961
2018-02-15T11:24:44.002Z,97957
2018-02-15T11:27:12.392Z,97956
2018-02-15T11:29:40.752Z,97951
2018-02-15T11:32:09.148Z,97944
2018-02-15T11:34:37.294Z,97943
2018-02-15T11:37:04.734Z,97942
2018-02-15T11:39:33.051Z,97938
2018-02-15T11:42:01.384Z,97937
2018-02-15T11:44:30.779Z,97927
2018-02-15T11:47:00.096Z,97930
2018-02-15T11:49:29.431Z,97922
2018-02-15T11:51:57.801Z,97920
2018-02-15T11:54:26.130Z,97923
2018-02-15T11:56:54.482Z,97917
2018-02-15T11:59:22.806Z,97923
2018-02-15T12:01:49.523Z,97916
2018-02-15T12:04:16.311Z,97919
2018-02-15T12:06:43.024Z,97919
2018-02-15T12:09:09.967Z,97915
2018-02-15T12:11:37.799Z,97912
2018-02-15T12:14:05.349Z,97914
2018-02-15T12:16:32.055Z,97899
2018-02-15T12:18:58.766Z,97896
2018-02-15T12:21:25.739Z,97905
2018-02-15T12:23:52.424Z,97901
2018-02-15T12:26:19.360Z,97899
2018-02-15T12:28:46.085Z,97899
2018-02-15T12:31:12.827Z,97896
2018-02-15T12:33:39.533Z,97895
2018-02-15T12:36:06.981Z,97896
2018-02-15T12:38:34.555Z,97896
2018-02-15T12:41:03.309Z,97893
2018-02-15T12:43:30.003Z,97884
2018-02-15T12:45:56.731Z,97891
2018-02-15T12:48:24.273Z,97890
2018-02-15T12:50:50.995Z,97894
2018-02-15T12:53:17.704Z,97895
2018-02-15T12:55:44.442Z,97897
2018-02-15T12:58:11.182Z,97899
2018-02-15T13:00:37.866Z,97901
2018-02-15T13:03:04.586Z,97895
2018-02-15T13:05:31.387Z,97889
2018-02-15T13:07:58.900Z,97892
2018-02-15T13:10:25.599Z,97894
2018-02-15T13:13:11.175Z,97892
2018-02-15T13:15:56.856Z,97889
2018-02-15T13:18:23.618Z,97881
2018-02-15T13:20:51.981Z,97873
2018-02-15T13:23:20.409Z,97868
2018-02-15T13:25:48.892Z,97864
2018-02-15T13:28:29.609Z,97867
2018-02-15T13:30:58.053Z,97872
2018-02-15T13:33:26.431Z,97869
2018-02-15T13:35:54.875Z,97868
2018-02-15T13:38:23.310Z,97865
2018-02-15T13:40:51.737Z,97864
2018-02-15T13:43:20.092Z,97867
2018-02-15T13:45:47.960Z,97871
2018-02-15T13:48:14.706Z,97870
2018-02-15T13:50:41.498Z,97861
2018-02-15T13:53:08.289Z,97858
2018-02-15T13:55:34.993Z,97860
2018-02-15T13:58:01.727Z,97865
2018-02-15T14:00:29.282Z,97862
2018-02-15T14:02:58.901Z,97860
2018-02-15T14:05:26.370Z,97856
2018-02-15T14:07:53.824Z,97860
2018-02-15T14:10:21.307Z,97853
2018-02-15T14:12:48.068Z,97857
2018-02-15T14:15:14.836Z,97860
2018-02-15T14:17:41.616Z,97853
2018-02-15T14:20:09.145Z,97854
2018-02-15T14:22:35.878Z,97853
2018-02-15T14:25:02.652Z,97856
2018-02-15T14:27:29.529Z,97858
2018-02-15T14:29:57.010Z,97861
2018-02-15T14:32:23.748Z,97860
2018-02-15T14:34:50.487Z,97864
2018-02-15T14:37:18.015Z,97859
2018-02-15T14:39:44.839Z,97858
2018-02-15T14:42:11.579Z,97852
2018-02-15T14:44:38.297Z,97851
2018-02-15T14:47:07.017Z,97850
2018-02-15T14:49:33.779Z,97852
2018-02-15T14:52:00.587Z,97853
2018-02-15T14:54:27.564Z,97851
2018-02-15T14:56:54.249Z,97852
2018-02-15T14:59:21.774Z,97847
2018-02-15T15:01:48.556Z,97856
2018-02-15T15:04:16.040Z,97850
2018-02-15T15:06:42.767Z,97852
2018-02-15T15:09:10.293Z,97854
2018-02-15T15:11:37.032Z,97851
2018-02-15T15:14:03.760Z,97850
2018-02-15T15:16:30.456Z,97851
2018-02-15T15:18:57.906Z,97848
2018-02-15T15:21:24.594Z,97855
2018-02-15T15:23:51.290Z,97857
2018-02-15T15:26:17.998Z,97855
2018-02-15T15:28:44.742Z,97852
2018-02-15T15:31:11.544Z,97861
2018-02-15T15:33:39.137Z,97857
2018-02-15T15:36:05.822Z,97856
2018-02-15T15:38:32.565Z,97858
2018-02-15T15:40:59.233Z,97863
2018-02-15T15:43:27.174Z,97870
2018-02-15T15:45:53.887Z,97869
2018-02-15T15:48:20.651Z,97871
2018-02-15T15:50:47.350Z,97871
2018-02-15T15:53:14.168Z,97880
2018-02-15T15:55:40.909Z,97880
2018-02-15T15:58:07.653Z,97881
2018-02-15T16:00:34.357Z,97881
2018-02-15T16:03:01.066Z,97884
2018-02-15T16:05:28.498Z,97879
2018-02-15T16:07:55.272Z,97875
2018-02-15T16:10:22.695Z,97883
2018-02-15T16:12:49.458Z,97883
2018-02-15T16:15:19.108Z,97887
2018-02-15T16:17:45.824Z,97894
2018-02-15T16:20:28.202Z,97893
2018-02-15T16:22:55.089Z,97891
2018-02-15T16:25:22.517Z,97893
2018-02-15T16:27:51.346Z,97888
2018-02-15T16:30:18.079Z,97888
2018-02-15T16:32:45.567Z,97896
2018-02-15T16:35:12.353Z,97897
2018-02-15T16:37:39.075Z,97905
2018-02-15T16:40:05.808Z,97906
2018-02-15T16:42:32.506Z,97906
2018-02-15T16:44:59.205Z,97912
2018-02-15T16:47:25.910Z,97914
2018-02-15T16:49:53.414Z,97919
2018-02-15T16:52:20.143Z,97923
2018-02-15T16:54:46.813Z,97929
2018-02-15T16:57:13.593Z,97927
2018-02-15T16:59:41.027Z,97932
2018-02-15T17:02:07.764Z,97925
2018-02-15T17:04:34.517Z,97934
2018-02-15T17:07:01.262Z,97924
2018-02-15T17:09:28.005Z,97924
2018-02-15T17:11:54.798Z,97926
2018-02-15T17:14:21.512Z,97932
2018-02-15T17:16:49.000Z,97934
2018-02-15T17:19:15.700Z,97937
2018-02-15T17:21:42.458Z,97936
2018-02-15T17:24:09.178Z,97940
2018-02-15T17:26:35.876Z,97945
2018-02-15T17:29:02.619Z,97942
2018-02-15T17:31:29.339Z,97940
2018-02-15T17:33:56.200Z,97946
2018-02-15T17:36:23.656Z,97939
2018-02-15T17:38:51.087Z,97941
2018-02-15T17:41:18.776Z,97947
2018-02-15T17:43:46.206Z,97942
2018-02-15T17:46:12.972Z,97948
2018-02-15T17:48:39.673Z,97942
2018-02-15T17:51:06.399Z,97939
2018-02-15T17:53:33.184Z,97944
2018-02-15T17:55:59.873Z,97942
2018-02-15T17:58:27.314Z,97941
2018-02-15T18:00:54.044Z,97943
2018-02-15T18:03:20.784Z,97941
2018-02-15T18:05:47.457Z,97939
2018-02-15T18:08:14.931Z,97935
2018-02-15T18:10:41.672Z,97929
2018-02-15T18:13:09.315Z,97930
2018-02-15T18:15:37.125Z,97933
2018-02-15T18:18:03.866Z,97936
2018-02-15T18:20:30.653Z,97938
2018-02-15T18:22:57.523Z,97938
2018-02-15T18:25:24.199Z,97939
2018-02-15T18:27:51.031Z,97936
2018-02-15T18:30:17.758Z,97936
2018-02-15T18:32:45.171Z,97937
2018-02-15T18:35:11.850Z,97941
2018-02-15T18:37:38.599Z,97938
2018-02-15T18:40:05.306Z,97943
2018-02-15T18:42:31.958Z,97950
2018-02-15T18:44:58.662Z,97949
2018-02-15T18:47:25.392Z,97949
2018-02-15T18:49:52.150Z,97949
2018-02-15T18:52:18.895Z,97951
2018-02-15T18:54:45.658Z,97954
2018-02-15T18:57:12.402Z,97949
2018-02-15T18:59:39.189Z,97953
2018-02-15T19:02:05.987Z,97951
2018-02-15T19:04:32.737Z,97950
2018-02-15T19:06:59.469Z,97952
2018-02-15T19:09:26.222Z,97950
2018-02-15T19:11:52.924Z,97944
2018-02-15T19:14:20.451Z,97949
2018-02-15T19:16:47.185Z,97945
2018-02-15T19:19:13.930Z,97947
2018-02-15T19:21:40.677Z,97953
2018-02-15T19:24:07.413Z,97952
2018-02-15T19:26:34.154Z,97948
2018-02-15T19:29:00.870Z,97946
2018-02-15T19:31:27.614Z,97952
2018-02-15T19:33:54.371Z,97954
2018-02-15T19:36:21.116Z,97965
2018-02-15T19:38:47.854Z,97965
2018-02-15T19:41:14.533Z,97962
2018-02-15T19:43:41.298Z,97968
2018-02-15T19:46:08.215Z,97963
2018-02-15T19:48:34.958Z,97964
2018-02-15T19:51:01.688Z,97960
2018-02-15T19:53:28.494Z,97950
2018-02-15T19:55:55.206Z,97954
2018-02-15T19:58:21.931Z,97949
2018-02-15T20:00:48.697Z,97941
2018-02-15T20:03:15.671Z,97942
2018-02-15T20:05:43.139Z,97943
2018-02-15T20:08:09.911Z,97947
2018-02-15T20:10:36.775Z,97947
2018-02-15T20:13:03.663Z,97951
2018-02-15T20:15:36.445Z,97955
2018-02-15T20:18:04.036Z,97954
2018-02-15T20:20:31.526Z,97956
2018-02-15T20:22:58.280Z,97959
2018-02-15T20:25:25.093Z,97956
2018-02-15T20:27:58.621Z,97950
2018-02-15T20:30:25.338Z,97948
2018-02-15T20:32:52.785Z,97948
2018-02-15T20:35:19.470Z,97959
2018-02-15T20:51:11.012Z,97958
2018-02-15T20:53:43.825Z,97956
2018-02-15T20:56:10.564Z,97955
2018-02-15T20:58:37.348Z,97962
2018-02-15T21:01:04.837Z,97966
2018-02-15T21:03:31.588Z,97975
2018-02-15T21:05:58.355Z,97977
2018-02-15T21:08:25.067Z,97969
2018-02-15T21:10:51.813Z,97972
2018-02-15T21:13:18.559Z,97974
2018-02-15T21:15:45.299Z,97978
2018-02-15T21:18:12.093Z,97977
2018-02-15T21:20:38.838Z,97987
2018-02-15T21:23:05.645Z,97993
2018-02-15T21:25:32.371Z,97986
2018-02-15T21:27:59.182Z,97982
2018-02-15T21:30:26.098Z,97982
2018-02-15T21:32:52.829Z,97993
2018-02-15T21:35:19.650Z,97987
2018-02-15T21:37:46.882Z,97993
2018-02-15T21:40:13.730Z,97985
2018-02-15T21:42:40.528Z,97985
2018-02-15T21:45:07.240Z,97996
2018-02-15T21:47:34.827Z,97991
2018-02-15T21:50:01.592Z,97989
2018-02-15T21:52:28.344Z,97992
2018-02-15T21:54:55.345Z,97991
2018-02-15T21:57:23.184Z,97990
2018-02-15T21:59:49.972Z,97988
2018-02-15T22:02:23.780Z,97988
2018-02-15T22:04:50.567Z,97985
2018-02-15T22:07:17.477Z,97983
2018-02-15T22:09:44.177Z,97984
2018-02-15T22:12:10.907Z,97985
2018-02-15T22:14:37.645Z,97980
2018-02-15T22:17:04.495Z,97979
2018-02-15T22:19:31.180Z,97980
2018-02-15T22:21:58.639Z,97980
2018-02-15T22:24:26.126Z,97987
2018-02-15T22:26:53.022Z,97986
2018-02-15T22:29:19.751Z,97991
2018-02-15T22:31:46.530Z,98001
2018-02-15T22:34:14.058Z,97999
2018-02-15T22:36:40.955Z,97992
2018-02-15T22:39:07.654Z,97983
2018-02-15T22:41:34.423Z,97986
2018-02-15T22:44:01.127Z,97983
2018-02-15T22:46:27.857Z,97980
2018-02-15T22:48:54.561Z,97979
2018-02-15T22:51:22.137Z,97979
2018-02-15T22:53:49.551Z,97987
2018-02-15T22:56:16.320Z,97990
2018-02-15T22:58:43.029Z,97996
2018-02-15T23:01:09.717Z,97993
2018-02-15T23:03:37.266Z,97994
2018-02-15T23:06:05.988Z,97992
2018-02-15T23:08:33.584Z,97990
2018-02-15T23:11:00.348Z,97989
2018-02-15T23:13:27.141Z,97983
2018-02-15T23:15:53.903Z,97979
2018-02-15T23:18:20.607Z,97986
2018-02-15T23:20:47.345Z,97981
2018-02-15T23:23:14.156Z,97977
2018-02-15T23:25:40.832Z,97976
2018-02-15T23:28:07.705Z,97974
2018-02-15T23:30:35.216Z,97968
2018-02-15T23:33:01.984Z,97973
2018-02-15T23:35:29.438Z,97976
2018-02-15T23:37:56.149Z,97975
2018-02-15T23:40:22.865Z,97976
2018-02-15T23:42:49.649Z,97975
2018-02-15T23:45:16.343Z,97975
2018-02-15T23:47:43.787Z,97968
2018-02-15T23:50:10.503Z,97956
2018-02-15T23:52:38.260Z,97957
2018-02-15T23:55:05.006Z,97957
2018-02-15T23:57:31.750Z,97964
2018-02-15T23:59:58.436Z,97962
